Time;durP1;ratioP1;P1;durP2;ratioP2;P2;SDS_P1;SDS_P2;PMS_P1;PMS_P2;Temp;Humidity;BMP_temperature;BMP_pressure;BME280_temperature;BME280_humidity;BME280_pressure;Samples;Min_cycle;Max_cycle;Signal;HPM_P1;HPM_P2
2021/01/28 00:00:36;;;;;;;3.40;1.95;;;7.60;72.80;;;;;;2335756;53;20976;-69
2021/01/28 00:03:03;;;;;;;2.83;1.62;;;7.60;72.80;;;;;;2357876;53;20946;-69
2021/01/28 00:05:31;;;;;;;3.22;1.10;;;7.60;72.80;;;;;;2594819;52;20902;-69
2021/01/28 00:07:58;;;;;;;4.37;1.37;;;7.60;72.90;;;;;;2362602;54;21022;-69
2021/01/28 00:10:25;;;;;;;3.00;1.60;;;7.60;72.90;;;;;;2591230;52;20967;-69
2021/01/28 00:12:51;;;;;;;3.25;1.55;;;7.60;72.80;;;;;;2620803;52;20989;-69
2021/01/28 00:15:21;;;;;;;3.80;1.70;;;7.60;72.90;;;;;;2593071;52;21064;-69
2021/01/28 00:17:47;;;;;;;3.00;1.67;;;7.60;72.90;;;;;;2356451;53;20970;-69
2021/01/28 00:20:26;;;;;;;3.85;2.05;;;7.60;72.90;;;;;;2596410;52;21009;-69
2021/01/28 00:22:53;;;;;;;3.47;1.90;;;7.70;72.90;;;;;;2347296;53;21009;-69
2021/01/28 00:25:20;;;;;;;3.65;1.98;;;7.70;73.00;;;;;;2349687;54;21410;-69
2021/01/28 00:27:47;;;;;;;4.12;2.08;;;7.70;73.00;;;;;;2344308;53;20990;-69
2021/01/28 00:30:22;;;;;;;4.05;2.15;;;7.70;73.00;;;;;;2355743;53;21411;-69
2021/01/28 00:32:49;;;;;;;4.03;1.95;;;7.70;73.00;;;;;;2342238;54;20942;-69
2021/01/28 00:35:22;;;;;;;4.20;2.25;;;7.70;73.00;;;;;;2588842;52;20918;-69
2021/01/28 00:37:48;;;;;;;4.50;2.50;;;7.80;73.10;;;;;;2601777;52;21367;-69
2021/01/28 00:40:15;;;;;;;8.40;3.65;;;7.80;73.10;;;;;;2349311;53;21081;-66
2021/01/28 00:42:42;;;;;;;9.70;4.15;;;7.80;73.10;;;;;;2604959;52;20969;-68
2021/01/28 00:45:09;;;;;;;7.47;3.47;;;7.80;73.00;;;;;;2592771;52;20939;-67
2021/01/28 00:47:35;;;;;;;7.18;3.37;;;7.80;73.00;;;;;;2592476;52;21498;-67
2021/01/28 00:50:02;;;;;;;9.63;4.62;;;7.90;73.10;;;;;;2597100;52;21065;-67
2021/01/28 00:52:31;;;;;;;9.10;4.53;;;7.90;73.00;;;;;;2564738;53;20982;-68
2021/01/28 00:54:57;;;;;;;6.25;3.35;;;7.90;73.70;;;;;;2575533;53;20963;-68
2021/01/28 00:57:24;;;;;;;7.05;3.10;;;7.90;73.00;;;;;;2585970;53;21021;-67
2021/01/28 00:59:50;;;;;;;4.60;2.22;;;7.90;73.00;;;;;;2575120;52;21862;-67
2021/01/28 01:02:16;;;;;;;3.20;1.75;;;7.90;73.00;;;;;;2341001;53;21061;-67
2021/01/28 01:04:43;;;;;;;3.10;1.45;;;7.90;73.00;;;;;;2336819;53;21124;-67
2021/01/28 01:07:09;;;;;;;2.62;1.20;;;7.90;72.90;;;;;;2585388;53;21425;-67
2021/01/28 01:09:36;;;;;;;2.33;1.15;;;7.90;73.00;;;;;;2335445;53;20995;-68
2021/01/28 01:12:03;;;;;;;2.50;1.20;;;7.90;73.00;;;;;;2321516;53;21000;-68
2021/01/28 01:14:29;;;;;;;2.22;1.30;;;8.00;73.10;;;;;;2356980;53;20948;-67
2021/01/28 01:16:56;;;;;;;2.58;1.37;;;8.00;73.10;;;;;;2603010;52;20965;-67
2021/01/28 01:19:22;;;;;;;2.90;1.40;;;8.00;73.10;;;;;;2352917;54;21105;-67
2021/01/28 01:21:53;;;;;;;3.08;1.33;;;8.00;73.00;;;;;;2610720;52;20993;-69
2021/01/28 01:24:19;;;;;;;2.70;1.12;;;8.00;73.00;;;;;;2536370;53;21126;-68
2021/01/28 01:26:45;;;;;;;2.60;1.25;;;8.00;73.00;;;;;;2557889;53;21061;-67
2021/01/28 01:29:12;;;;;;;2.90;1.17;;;8.10;73.10;;;;;;2329920;53;21479;-68
2021/01/28 01:31:39;;;;;;;3.15;1.37;;;8.00;73.10;;;;;;2568299;52;20976;-67
2021/01/28 01:34:05;;;;;;;1.83;0.82;;;8.10;73.20;;;;;;2347351;53;21068;-68
2021/01/28 01:36:32;;;;;;;1.92;0.88;;;8.10;73.20;;;;;;2567626;53;21053;-67
2021/01/28 01:38:58;;;;;;;1.95;0.95;;;8.10;73.20;;;;;;2331372;54;20965;-67
2021/01/28 01:41:31;;;;;;;2.45;1.00;;;8.10;73.20;;;;;;2354425;54;20971;-66
2021/01/28 01:44:00;;;;;;;2.00;0.95;;;8.10;73.10;;;;;;2594028;52;20974;-66
2021/01/28 01:46:27;;;;;;;2.28;1.02;;;8.10;73.20;;;;;;2572020;52;20958;-67
2021/01/28 01:48:59;;;;;;;2.58;1.00;;;8.10;73.20;;;;;;2358446;53;21890;-67
2021/01/28 01:51:43;;;;;;;2.62;1.30;;;8.10;73.20;;;;;;2340483;53;20953;-68
2021/01/28 01:54:26;;;;;;;2.42;1.12;;;8.20;73.10;;;;;;2571887;52;21475;-67
2021/01/28 01:56:56;;;;;;;2.78;1.37;;;8.20;73.00;;;;;;2344412;53;20982;-67
2021/01/28 01:59:45;;;;;;;2.50;1.20;;;8.20;73.20;;;;;;2568159;53;20972;-67
2021/01/28 02:02:19;;;;;;;3.17;1.60;;;8.20;73.10;;;;;;2546879;53;21014;-67
2021/01/28 02:04:46;;;;;;;3.30;1.75;;;8.20;73.20;;;;;;2330155;54;20968;-66
2021/01/28 02:07:20;;;;;;;2.80;1.40;;;8.20;73.20;;;;;;2561478;53;20949;-67
2021/01/28 02:09:47;;;;;;;3.58;2.05;;;8.20;73.20;;;;;;2318236;54;20992;-67
2021/01/28 02:12:15;;;;;;;3.30;1.67;;;8.20;73.30;;;;;;2574585;53;21012;-69
2021/01/28 02:14:41;;;;;;;4.05;2.08;;;8.20;73.40;;;;;;2578092;52;21033;-69
2021/01/28 02:17:09;;;;;;;3.00;1.60;;;8.20;73.40;;;;;;2338420;54;21018;-69
2021/01/28 02:26:24;;;;;;;3.87;2.00;;;8.20;73.50;;;;;;2582156;53;21011;-69
2021/01/28 02:28:50;;;;;;;3.62;1.90;;;8.30;72.70;;;;;;2585247;53;20947;-69
2021/01/28 02:31:17;;;;;;;2.95;1.60;;;8.40;73.30;;;;;;2586480;53;21580;-69
2021/01/28 02:33:52;;;;;;;3.20;1.73;;;8.30;73.30;;;;;;2584012;53;20953;-68
2021/01/28 02:36:19;;;;;;;2.90;1.48;;;8.30;73.40;;;;;;2586223;52;20963;-68
2021/01/28 02:38:45;;;;;;;2.95;1.42;;;8.30;73.60;;;;;;2337272;54;20929;-69
2021/01/28 02:41:11;;;;;;;2.97;1.52;;;8.40;73.70;;;;;;2583369;53;20994;-69
2021/01/28 02:43:38;;;;;;;2.97;1.50;;;8.40;73.80;;;;;;2344911;54;20983;-68
2021/01/28 02:46:10;;;;;;;3.25;1.30;;;8.40;73.80;;;;;;2581412;53;20904;-67
2021/01/28 02:48:36;;;;;;;2.72;1.33;;;8.40;73.90;;;;;;2347098;54;20990;-68
2021/01/28 02:51:05;;;;;;;2.50;1.23;;;8.40;73.80;;;;;;2581661;52;21004;-67
2021/01/28 02:53:42;;;;;;;1.90;0.93;;;8.50;73.90;;;;;;2338411;53;20948;-68
2021/01/28 02:56:08;;;;;;;2.12;1.00;;;8.50;73.80;;;;;;2581842;53;20964;-69
2021/01/28 02:58:36;;;;;;;2.60;1.23;;;8.50;73.90;;;;;;2589526;52;20960;-67
2021/01/28 03:01:03;;;;;;;1.95;0.88;;;8.50;73.80;;;;;;2582951;53;20986;-67
2021/01/28 03:03:29;;;;;;;1.52;0.70;;;8.50;73.80;;;;;;2585249;53;20959;-68
2021/01/28 03:05:55;;;;;;;2.33;1.00;;;8.50;73.80;;;;;;2563278;53;21035;-68
2021/01/28 03:08:22;;;;;;;2.62;1.30;;;8.60;73.80;;;;;;2352414;53;21653;-67
2021/01/28 03:10:48;;;;;;;2.97;1.33;;;8.60;73.80;;;;;;2594659;52;20986;-68
2021/01/28 03:13:14;;;;;;;2.42;1.20;;;8.60;73.70;;;;;;2599983;52;20951;-68
2021/01/28 03:15:41;;;;;;;2.33;1.00;;;8.60;73.70;;;;;;2604514;52;21080;-68
2021/01/28 03:18:07;;;;;;;1.85;0.80;;;8.60;73.60;;;;;;2588078;52;21019;-68
2021/01/28 03:20:34;;;;;;;2.00;0.80;;;8.70;73.80;;;;;;2608186;52;20984;-68
2021/01/28 03:23:02;;;;;;;2.35;0.85;;;8.70;73.70;;;;;;2350992;53;21015;-68
2021/01/28 03:25:28;;;;;;;2.05;0.90;;;8.70;73.70;;;;;;2586512;52;21022;-68
2021/01/28 03:27:55;;;;;;;2.40;1.00;;;8.70;73.70;;;;;;2349239;53;20971;-67
2021/01/28 03:30:30;;;;;;;2.22;1.10;;;8.70;73.60;;;;;;2585673;52;20965;-68
2021/01/28 03:32:56;;;;;;;3.17;1.30;;;8.70;73.60;;;;;;2579049;52;20916;-68
2021/01/28 03:35:22;;;;;;;3.10;1.42;;;8.70;73.70;;;;;;2554996;52;20991;-68
2021/01/28 03:37:49;;;;;;;3.30;1.50;;;8.70;73.70;;;;;;2555251;53;20972;-68
2021/01/28 03:40:22;;;;;;;2.22;1.10;;;8.70;73.80;;;;;;2560460;53;21011;-68
2021/01/28 03:42:49;;;;;;;2.67;1.30;;;8.70;73.80;;;;;;2566705;53;20954;-68
2021/01/28 03:45:15;;;;;;;2.47;1.10;;;8.70;73.70;;;;;;2571576;52;21031;-68
2021/01/28 03:47:42;;;;;;;2.58;1.02;;;8.70;73.70;;;;;;2595751;52;20970;-68
2021/01/28 03:50:15;;;;;;;2.00;1.05;;;8.80;73.80;;;;;;2591976;52;20979;-68
2021/01/28 03:52:41;;;;;;;;;;;8.80;73.80;;;;;;2561806;53;20934;-68
2021/01/28 03:55:09;;;;;;;1.52;0.77;;;8.80;73.20;;;;;;2584141;52;20106;-68
2021/01/28 03:57:39;;;;;;;1.85;0.82;;;8.80;73.70;;;;;;2360259;53;20954;-68
2021/01/28 04:00:10;;;;;;;1.23;0.60;;;8.80;73.80;;;;;;2611155;52;20986;-68
2021/01/28 04:02:40;;;;;;;2.05;0.80;;;8.80;73.90;;;;;;2354815;54;21079;-68
2021/01/28 04:05:11;;;;;;;1.25;0.60;;;8.80;74.00;;;;;;2593029;52;21836;-68
2021/01/28 04:07:37;;;;;;;1.58;0.62;;;8.90;74.10;;;;;;2591735;52;21831;-68
2021/01/28 04:10:19;;;;;;;1.50;0.70;;;8.90;74.10;;;;;;2595259;52;20933;-67
2021/01/28 04:12:46;;;;;;;1.87;0.68;;;8.90;74.20;;;;;;2608387;52;21057;-68
2021/01/28 04:15:14;;;;;;;1.87;0.80;;;8.90;74.10;;;;;;2604288;52;20941;-68
2021/01/28 04:17:40;;;;;;;1.75;0.70;;;8.90;74.10;;;;;;2600286;52;20983;-68
2021/01/28 04:20:08;;;;;;;1.45;0.73;;;9.00;74.20;;;;;;2358089;54;21034;-67
2021/01/28 04:22:35;;;;;;;1.77;0.70;;;9.00;74.30;;;;;;2582319;52;20939;-70
2021/01/28 04:25:02;;;;;;;1.62;0.73;;;9.00;74.20;;;;;;2621500;52;21018;-69
2021/01/28 04:27:29;;;;;;;1.62;0.70;;;9.00;74.30;;;;;;2589006;52;20931;-69
2021/01/28 04:29:55;;;;;;;1.70;0.70;;;9.00;74.30;;;;;;2587469;52;21034;-70
2021/01/28 04:32:22;;;;;;;3.12;1.10;;;9.00;74.30;;;;;;2604936;52;21007;-68
2021/01/28 04:34:48;;;;;;;1.83;0.70;;;9.00;74.30;;;;;;2589134;52;20986;-70
2021/01/28 04:37:15;;;;;;;1.52;0.62;;;9.00;74.30;;;;;;2351772;53;21733;-70
2021/01/28 04:39:43;;;;;;;1.98;0.70;;;9.10;74.50;;;;;;2590922;52;21014;-70
2021/01/28 04:42:16;;;;;;;1.58;0.68;;;9.10;74.50;;;;;;2605337;52;20918;-70
2021/01/28 04:44:42;;;;;;;2.22;0.88;;;9.10;74.60;;;;;;2355187;54;21018;-70
2021/01/28 04:47:13;;;;;;;2.83;1.23;;;9.10;74.60;;;;;;2352710;54;21015;-69
2021/01/28 04:49:40;;;;;;;3.90;1.58;;;9.10;74.70;;;;;;2596021;52;21628;-70
2021/01/28 04:52:07;;;;;;;2.53;1.10;;;9.10;74.70;;;;;;2581184;52;21019;-70
2021/01/28 04:54:35;;;;;;;1.75;0.80;;;9.20;74.70;;;;;;2604198;52;21465;-69
2021/01/28 04:57:09;;;;;;;1.83;0.90;;;9.20;74.80;;;;;;2594539;52;21477;-68
2021/01/28 04:59:39;;;;;;;1.58;0.60;;;9.20;74.80;;;;;;2607906;52;21043;-69
2021/01/28 05:02:06;;;;;;;1.60;0.80;;;9.20;74.80;;;;;;2597538;52;21287;-69
2021/01/28 05:04:50;;;;;;;1.73;0.68;;;9.30;74.90;;;;;;2370540;53;20957;-70
2021/01/28 05:07:26;;;;;;;1.15;0.52;;;9.30;74.90;;;;;;2348625;53;21026;-70
2021/01/28 05:13:31;;;;;;;1.70;0.60;;;9.30;74.90;;;;;;2602018;52;21477;-70
2021/01/28 05:15:59;;;;;;;0.95;0.40;;;9.30;74.30;;;;;;2594611;52;20967;-70
2021/01/28 05:18:34;;;;;;;1.33;0.50;;;9.40;74.70;;;;;;2368189;54;21927;-70
2021/01/28 05:21:05;;;;;;;0.52;0.32;;;9.40;74.80;;;;;;2591955;52;20963;-70
2021/01/28 05:23:36;;;;;;;0.82;0.50;;;9.40;74.80;;;;;;2590562;52;20975;-70
2021/01/28 05:26:42;;;;;;;0.98;0.45;;;9.40;74.80;;;;;;2583430;52;21411;-69
2021/01/28 05:29:28;;;;;;;0.82;0.32;;;9.40;74.70;;;;;;2612539;52;20979;-70
2021/01/28 05:31:57;;;;;;;1.02;0.50;;;9.40;74.70;;;;;;2594546;52;21018;-69
2021/01/28 05:34:30;;;;;;;1.20;0.60;;;9.40;74.80;;;;;;2343666;53;20982;-70
2021/01/28 05:37:04;;;;;;;0.90;0.50;;;9.40;74.80;;;;;;2321112;55;20963;-68
2021/01/28 05:39:36;;;;;;;1.52;0.50;;;9.50;74.90;;;;;;2338349;54;21051;-70
2021/01/28 05:42:08;;;;;;;1.05;0.50;;;9.50;75.00;;;;;;2333124;53;21037;-71
2021/01/28 05:44:34;;;;;;;1.17;0.60;;;9.50;75.00;;;;;;2360609;54;20987;-71
2021/01/28 05:47:43;;;;;;;0.85;0.37;;;9.60;75.20;;;;;;2604948;52;21067;-70
2021/01/28 05:50:42;;;;;;;0.50;0.30;;;9.50;74.80;;;;;;2569160;53;21033;-70
2021/01/28 05:53:13;;;;;;;0.82;0.45;;;9.60;74.90;;;;;;2333637;53;21569;-70
2021/01/28 05:55:40;;;;;;;0.75;0.40;;;9.60;75.20;;;;;;2591167;52;20982;-70
2021/01/28 05:58:30;;;;;;;1.40;0.62;;;9.60;75.30;;;;;;2368538;53;21008;-70
2021/01/28 06:01:33;;;;;;;2.17;0.90;;;9.60;75.30;;;;;;2593726;52;20998;-70
2021/01/28 06:04:42;;;;;;;1.23;0.55;;;9.60;75.20;;;;;;2603192;52;20937;-70
2021/01/28 06:07:50;;;;;;;0.98;0.40;;;9.70;75.30;;;;;;2588487;52;21471;-70
2021/01/28 06:10:49;;;;;;;1.27;0.50;;;9.60;75.30;;;;;;2326829;53;21024;-71
2021/01/28 06:13:53;;;;;;;0.75;0.40;;;9.70;75.50;;;;;;2561628;52;21063;-70
2021/01/28 06:16:38;;;;;;;0.98;0.50;;;9.60;75.20;;;;;;2556207;53;20946;-71
2021/01/28 06:19:32;;;;;;;1.05;0.40;;;9.70;75.40;;;;;;2579223;53;21550;-71
2021/01/28 06:22:01;;;;;;;1.17;0.50;;;9.70;75.60;;;;;;2323466;54;20988;-71
2021/01/28 06:25:11;;;;;;;1.70;0.75;;;9.70;75.60;;;;;;2549205;52;22140;-71
2021/01/28 06:29:03;;;;;;;1.52;0.50;;;9.70;75.60;;;;;;2566986;52;20972;-71
2021/01/28 06:33:10;;;;;;;1.45;0.50;;;9.80;75.60;;;;;;2573228;52;20967;-71
2021/01/28 06:37:30;;;;;;;1.48;0.70;;;9.80;75.60;;;;;;2582135;53;21006;-71
2021/01/28 06:39:56;;;;;;;0.70;0.40;;;9.80;75.80;;;;;;2567788;52;21006;-71
2021/01/28 06:42:34;;;;;;;0.77;0.40;;;9.90;75.90;;;;;;2565446;52;1659673;-72
2021/01/28 06:45:13;;;;;;;1.80;0.60;;;9.90;76.10;;;;;;2577836;52;21032;-72
2021/01/28 06:48:00;;;;;;;2.70;0.60;;;9.90;76.10;;;;;;2337401;54;21020;-72
2021/01/28 06:52:00;;;;;;;1.27;0.57;;;9.90;76.10;;;;;;2356017;53;21027;-72
2021/01/28 06:54:35;;;;;;;1.50;0.70;;;10.00;75.00;;;;;;2589064;52;21007;-73
2021/01/28 07:00:37;;;;;;;1.30;0.57;;;10.00;75.00;;;;;;2589384;52;21053;-73
2021/01/28 07:03:30;;;;;;;1.27;0.60;;;10.10;74.70;;;;;;2570479;52;21048;-73
2021/01/28 07:07:39;;;;;;;2.22;0.70;;;10.10;74.90;;;;;;2571114;52;21058;-73
2021/01/28 07:10:51;;;;;;;1.50;0.62;;;10.10;74.90;;;;;;2353149;54;20958;-73
2021/01/28 07:13:38;;;;;;;1.35;0.57;;;10.20;74.80;;;;;;2598752;52;21000;-73
2021/01/28 07:16:34;;;;;;;1.27;0.60;;;10.20;75.00;;;;;;2589328;52;20950;-73
2021/01/28 07:19:07;;;;;;;1.50;0.60;;;10.00;75.00;;;;;;2617468;52;20974;-72
2021/01/28 07:21:42;;;;;;;0.70;0.37;;;10.20;75.30;;;;;;2579623;52;21015;-73
2021/01/28 07:24:29;;;;;;;1.37;0.40;;;10.20;75.40;;;;;;2595429;52;21824;-73
2021/01/28 07:27:06;;;;;;;1.00;0.47;;;10.20;75.30;;;;;;2551033;53;21005;-73
2021/01/28 07:31:41;;;;;;;1.08;0.50;;;10.30;75.50;;;;;;2342108;53;21077;-73
2021/01/28 07:34:12;;;;;;;1.62;0.40;;;10.30;75.40;;;;;;2561209;52;21028;-73
2021/01/28 07:36:41;;;;;;;1.60;0.60;;;10.40;75.60;;;;;;2330556;54;21547;-73
2021/01/28 07:39:32;;;;;;;1.48;0.37;;;10.40;75.60;;;;;;2348231;53;21447;-73
2021/01/28 07:41:59;;;;;;;2.45;0.70;;;10.40;75.70;;;;;;2325587;53;20957;-73
2021/01/28 07:44:50;;;;;;;3.58;1.48;;;10.40;75.70;;;;;;2302504;55;21113;-73
2021/01/28 07:50:48;;;;;;;3.30;0.90;;;10.50;75.70;;;;;;2561375;52;21094;-74
2021/01/28 07:53:44;;;;;;;1.95;0.70;;;10.60;75.40;;;;;;2555066;52;21017;-73
2021/01/28 07:56:43;;;;;;;2.55;0.70;;;10.50;75.50;;;;;;2545994;53;21023;-74
2021/01/28 07:59:20;;;;;;;1.75;0.60;;;10.60;75.50;;;;;;2580265;52;20963;-74
2021/01/28 08:01:50;;;;;;;0.82;0.30;;;10.60;75.70;;;;;;2354742;53;20977;-74
2021/01/28 08:06:10;;;;;;;0.88;0.40;;;10.60;75.70;;;;;;2584010;52;21840;-74
2021/01/28 08:08:36;;;;;;;2.12;0.45;;;10.60;75.30;;;;;;2585103;52;21023;-73
2021/01/28 08:11:18;;;;;;;1.40;0.50;;;10.60;75.50;;;;;;2589922;52;21045;-74
2021/01/28 08:13:44;;;;;;;1.42;0.60;;;10.60;75.40;;;;;;2590927;52;21507;-74
2021/01/28 08:16:17;;;;;;;0.82;0.30;;;10.70;75.50;;;;;;2587372;52;20967;-74
2021/01/28 08:18:44;;;;;;;0.98;0.40;;;10.70;75.50;;;;;;2599408;52;21007;-75
2021/01/28 08:21:21;;;;;;;0.88;0.37;;;10.70;75.50;;;;;;2594851;52;20965;-74
2021/01/28 08:23:48;;;;;;;0.62;0.30;;;10.70;75.60;;;;;;2619061;52;20930;-74
2021/01/28 08:26:25;;;;;;;0.77;0.30;;;10.70;75.60;;;;;;2595171;52;21003;-74
2021/01/28 08:29:21;;;;;;;1.45;0.40;;;10.70;75.60;;;;;;2581992;52;20952;-74
2021/01/28 08:31:49;;;;;;;1.87;0.57;;;10.80;75.60;;;;;;2338844;54;21474;-74
2021/01/28 08:34:18;;;;;;;0.57;0.35;;;10.80;75.50;;;;;;2582462;52;21011;-74
2021/01/28 08:36:49;;;;;;;1.30;0.50;;;10.80;75.40;;;;;;2351246;53;21066;-74
2021/01/28 08:39:26;;;;;;;1.45;0.47;;;10.90;75.50;;;;;;2581390;52;21463;-75
2021/01/28 08:42:09;;;;;;;0.73;0.40;;;10.80;75.40;;;;;;2581736;52;20935;-74
2021/01/28 08:44:36;;;;;;;1.05;0.40;;;10.90;75.50;;;;;;2359127;53;20914;-74
2021/01/28 08:47:35;;;;;;;2.03;0.60;;;10.90;75.50;;;;;;2340175;54;21778;-74
2021/01/28 08:50:36;;;;;;;1.17;0.50;;;10.90;75.30;;;;;;2342401;53;20957;-75
2021/01/28 08:53:12;;;;;;;1.70;0.45;;;10.90;75.40;;;;;;2570343;52;21027;-75
2021/01/28 08:55:44;;;;;;;1.65;0.60;;;10.90;75.40;;;;;;2579913;53;21345;-75
2021/01/28 08:58:18;;;;;;;1.00;0.43;;;10.90;75.40;;;;;;2335857;54;20991;-75
2021/01/28 09:00:50;;;;;;;1.95;0.45;;;10.90;75.40;;;;;;2543090;53;21689;-76
2021/01/28 09:03:22;;;;;;;2.50;0.60;;;10.90;75.40;;;;;;2539513;53;21058;-75
2021/01/28 09:05:51;;;;;;;0.90;0.37;;;11.00;75.40;;;;;;2549604;53;21480;-75
2021/01/28 09:08:29;;;;;;;1.05;0.43;;;11.00;75.30;;;;;;2336423;54;21053;-75
2021/01/28 09:11:23;;;;;;;1.05;0.45;;;11.00;75.40;;;;;;2557488;53;21014;-76
2021/01/28 09:17:25;;;;;;;1.55;0.60;;;11.00;75.20;;;;;;2566001;53;21037;-75
2021/01/28 09:19:56;;;;;;;1.10;0.40;;;11.00;75.20;;;;;;2562134;53;21041;-74
2021/01/28 09:22:33;;;;;;;1.10;0.40;;;11.00;75.50;;;;;;2571475;53;21053;-75
2021/01/28 09:25:01;;;;;;;1.35;0.55;;;11.00;75.40;;;;;;2567931;53;21043;-74
2021/01/28 09:27:35;;;;;;;1.25;0.47;;;11.00;75.50;;;;;;2588396;53;21660;-74
2021/01/28 09:32:02;;;;;;;1.58;0.57;;;11.00;76.30;;;;;;2589078;53;21052;-74
2021/01/28 09:34:29;;;;;;;1.12;0.43;;;11.10;75.40;;;;;;2538933;53;20992;-74
2021/01/28 09:37:08;;;;;;;1.87;0.55;;;11.10;75.80;;;;;;2313095;57;22095;-74
2021/01/28 09:39:43;;;;;;;1.33;0.55;;;11.10;75.90;;;;;;2563629;53;21036;-74
2021/01/28 09:43:25;;;;;;;1.67;0.62;;;11.20;75.90;;;;;;2545725;53;21105;-75
2021/01/28 09:46:24;;;;;;;1.52;0.50;;;11.20;75.60;;;;;;2526803;53;20994;-75
2021/01/28 09:48:54;;;;;;;2.37;0.60;;;11.20;75.80;;;;;;2302219;57;21054;-75
2021/01/28 09:51:32;;;;;;;0.95;0.40;;;11.30;75.90;;;;;;2318764;57;21096;-75
2021/01/28 09:54:16;;;;;;;0.80;0.40;;;11.30;75.90;;;;;;2554127;53;21148;-75
2021/01/28 09:56:43;;;;;;;1.05;0.40;;;11.30;75.90;;;;;;2541091;53;21082;-75
2021/01/28 09:59:10;;;;;;;1.42;0.50;;;11.30;75.90;;;;;;2564475;53;21232;-74
2021/01/28 10:01:36;;;;;;;1.10;0.50;;;11.40;76.10;;;;;;2576603;53;21108;-74
2021/01/28 10:04:04;;;;;;;1.45;0.50;;;11.40;76.00;;;;;;2568368;53;21087;-75
2021/01/28 10:06:31;;;;;;;1.00;0.40;;;11.40;76.00;;;;;;2287982;57;21085;-75
2021/01/28 10:08:57;;;;;;;1.75;0.50;;;11.40;76.00;;;;;;2513206;53;21106;-74
2021/01/28 10:11:24;;;;;;;1.90;0.50;;;11.50;76.10;;;;;;2534329;53;21123;-74
2021/01/28 10:13:50;;;;;;;1.42;0.50;;;11.50;76.10;;;;;;2548786;53;21231;-75
2021/01/28 10:16:17;;;;;;;1.40;0.57;;;11.50;76.00;;;;;;2295164;57;21199;-74
2021/01/28 10:18:45;;;;;;;1.00;0.55;;;11.50;75.90;;;;;;2559183;53;21159;-74
2021/01/28 10:21:11;;;;;;;1.67;0.60;;;11.50;75.70;;;;;;2560324;53;21067;-74
2021/01/28 10:23:37;;;;;;;1.55;0.70;;;11.50;75.80;;;;;;2565983;52;21001;-75
2021/01/28 10:26:04;;;;;;;1.20;0.50;;;11.60;76.00;;;;;;2582172;52;20970;-75
2021/01/28 10:28:30;;;;;;;2.05;0.62;;;11.60;76.00;;;;;;2582782;52;20950;-75
2021/01/28 10:30:57;;;;;;;1.90;0.70;;;11.70;76.10;;;;;;2587663;52;20992;-75
2021/01/28 10:33:27;;;;;;;1.50;0.62;;;11.60;76.00;;;;;;2585479;53;21571;-75
2021/01/28 10:35:54;;;;;;;1.67;0.70;;;11.60;76.00;;;;;;2580883;53;20944;-75
2021/01/28 10:38:20;;;;;;;3.08;1.00;;;11.70;76.10;;;;;;2345360;54;20934;-75
2021/01/28 10:40:47;;;;;;;2.47;0.95;;;11.70;76.10;;;;;;2586431;52;21772;-75
2021/01/28 10:43:13;;;;;;;2.00;0.80;;;11.70;76.10;;;;;;2336661;55;21020;-75
2021/01/28 10:45:40;;;;;;;2.40;0.93;;;11.80;76.20;;;;;;2327665;53;20996;-75
2021/01/28 10:48:08;;;;;;;2.53;1.20;;;11.80;76.30;;;;;;2585221;52;20925;-75
2021/01/28 10:50:35;;;;;;;2.30;0.90;;;11.80;76.30;;;;;;2581491;52;21589;-75
2021/01/28 10:53:02;;;;;;;1.60;0.70;;;11.80;76.20;;;;;;2583436;52;20974;-75
2021/01/28 10:55:29;;;;;;;2.35;0.60;;;11.80;76.30;;;;;;2591457;52;21820;-75
2021/01/28 10:57:58;;;;;;;1.73;0.62;;;11.80;76.40;;;;;;2587737;52;21366;-75
2021/01/28 11:00:26;;;;;;;2.05;0.90;;;11.90;76.60;;;;;;2605721;52;21574;-75
2021/01/28 11:02:54;;;;;;;2.35;0.82;;;11.90;76.60;;;;;;2587091;52;22269;-75
2021/01/28 11:05:30;;;;;;;2.22;0.75;;;12.00;76.80;;;;;;2581956;52;20970;-75
2021/01/28 11:07:57;;;;;;;2.22;0.95;;;12.00;76.80;;;;;;2589915;52;20913;-75
2021/01/28 11:10:23;;;;;;;1.73;0.70;;;12.00;76.90;;;;;;2349259;53;20931;-75
2021/01/28 11:12:55;;;;;;;2.17;0.70;;;12.10;77.00;;;;;;2612094;52;21789;-75
2021/01/28 11:15:22;;;;;;;2.12;0.70;;;12.20;77.20;;;;;;2609025;52;20972;-75
2021/01/28 11:17:51;;;;;;;1.58;0.68;;;12.20;77.30;;;;;;2593179;52;20909;-75
2021/01/28 11:20:18;;;;;;;1.70;0.62;;;12.20;77.50;;;;;;2573809;53;20949;-75
2021/01/28 11:22:47;;;;;;;1.25;0.55;;;12.30;77.60;;;;;;2599756;52;20968;-75
2021/01/28 11:25:19;;;;;;;1.73;0.70;;;12.30;77.60;;;;;;2595454;52;21903;-75
2021/01/28 11:27:48;;;;;;;1.52;0.62;;;12.40;77.70;;;;;;2596435;52;22084;-75
2021/01/28 11:30:15;;;;;;;1.65;0.70;;;12.50;77.80;;;;;;2592892;52;20998;-75
2021/01/28 11:32:41;;;;;;;2.80;1.27;;;12.50;77.60;;;;;;2617577;52;21061;-75
2021/01/28 11:35:09;;;;;;;2.40;1.10;;;12.60;77.50;;;;;;2620892;52;21448;-75
2021/01/28 11:37:37;;;;;;;3.03;1.10;;;12.60;77.20;;;;;;2610690;52;21063;-75
2021/01/28 11:40:05;;;;;;;2.45;0.98;;;12.70;77.30;;;;;;2596910;52;21522;-75
2021/01/28 11:42:32;;;;;;;2.03;0.80;;;12.70;77.00;;;;;;2596322;52;20939;-75
2021/01/28 11:44:58;;;;;;;2.05;0.70;;;12.80;77.00;;;;;;2615128;52;21053;-75
2021/01/28 11:47:26;;;;;;;4.22;1.08;;;12.80;76.80;;;;;;2352850;53;21498;-75
2021/01/28 11:49:52;;;;;;;2.03;0.80;;;12.80;76.80;;;;;;2572705;52;21054;-74
2021/01/28 11:52:19;;;;;;;1.67;0.70;;;12.90;76.70;;;;;;2571779;52;20998;-74
2021/01/28 11:54:45;;;;;;;1.48;0.65;;;12.90;76.70;;;;;;2578600;52;21558;-74
2021/01/28 11:57:12;;;;;;;2.40;0.88;;;12.90;76.60;;;;;;2366621;53;21732;-74
2021/01/28 11:59:38;;;;;;;1.98;0.57;;;13.00;76.70;;;;;;2601178;52;21097;-74
2021/01/28 12:02:07;;;;;;;2.00;0.70;;;13.00;76.50;;;;;;2591338;52;22103;-74
2021/01/28 12:04:33;;;;;;;0.70;0.40;;;13.00;76.40;;;;;;2594946;52;21020;-75
2021/01/28 12:07:03;;;;;;;1.62;0.70;;;13.10;76.50;;;;;;2605488;52;20959;-74
2021/01/28 12:09:29;;;;;;;2.17;0.55;;;13.10;76.50;;;;;;2603028;52;20955;-75
2021/01/28 12:11:55;;;;;;;2.62;0.68;;;13.10;76.40;;;;;;2620780;52;20934;-75
2021/01/28 12:14:22;;;;;;;2.05;0.70;;;13.10;76.40;;;;;;2619653;52;20922;-74
2021/01/28 12:16:49;;;;;;;1.25;0.57;;;13.20;76.50;;;;;;2619704;52;20902;-75
2021/01/28 12:19:15;;;;;;;1.58;0.55;;;13.20;76.40;;;;;;2326259;53;21290;-75
2021/01/28 12:21:41;;;;;;;1.25;0.50;;;13.20;76.50;;;;;;2332997;53;21395;-75
2021/01/28 12:24:09;;;;;;;1.15;0.50;;;13.30;76.50;;;;;;2576179;52;20973;-74
2021/01/28 12:26:35;;;;;;;1.92;0.55;;;13.30;76.40;;;;;;2565610;53;20957;-74
2021/01/28 12:29:02;;;;;;;3.42;0.88;;;13.30;76.40;;;;;;2583574;52;21445;-74
2021/01/28 12:31:28;;;;;;;2.25;0.80;;;13.40;76.40;;;;;;2584923;52;21851;-75
2021/01/28 12:33:55;;;;;;;1.52;0.50;;;13.40;76.50;;;;;;2547118;53;20947;-75
2021/01/28 12:36:21;;;;;;;1.80;0.65;;;13.40;76.10;;;;;;2562129;53;21532;-74
2021/01/28 12:38:50;;;;;;;1.30;0.50;;;13.50;76.20;;;;;;2343973;53;20916;-75
2021/01/28 12:41:17;;;;;;;1.40;0.52;;;13.50;76.10;;;;;;2584334;53;21413;-75
2021/01/28 12:43:43;;;;;;;1.48;0.52;;;13.50;76.10;;;;;;2587928;53;20941;-74
2021/01/28 12:46:09;;;;;;;4.00;0.90;;;13.50;76.10;;;;;;2586102;53;20992;-74
2021/01/28 12:48:36;;;;;;;2.05;0.85;;;13.60;76.20;;;;;;2580725;53;21383;-74
2021/01/28 12:51:02;;;;;;;2.75;0.80;;;13.60;76.20;;;;;;2580212;53;21411;-75
2021/01/28 12:53:29;;;;;;;3.05;1.25;;;13.60;76.20;;;;;;2580751;53;20982;-75
2021/01/28 12:55:55;;;;;;;2.20;0.80;;;13.60;76.30;;;;;;2343965;54;20958;-75
2021/01/28 12:58:21;;;;;;;2.92;1.15;;;13.70;76.40;;;;;;2583383;53;20957;-74
2021/01/28 13:00:48;;;;;;;1.75;0.60;;;13.70;76.40;;;;;;2340917;53;21550;-74
2021/01/28 13:03:15;;;;;;;2.62;1.02;;;13.80;76.40;;;;;;2586247;53;20953;-75
2021/01/28 13:05:41;;;;;;;2.22;0.80;;;13.80;76.30;;;;;;2576559;53;21183;-73
2021/01/28 13:08:07;;;;;;;1.20;0.50;;;13.80;76.30;;;;;;2586114;52;21010;-73
2021/01/28 13:10:33;;;;;;;1.58;0.52;;;13.90;76.40;;;;;;2555676;53;20945;-73
2021/01/28 13:13:00;;;;;;;2.37;0.52;;;13.90;76.30;;;;;;2590656;52;20938;-74
2021/01/28 13:15:28;;;;;;;2.60;0.60;;;13.90;76.10;;;;;;2333499;53;21055;-74
2021/01/28 13:17:54;;;;;;;1.95;0.70;;;13.90;75.90;;;;;;2558417;52;21484;-73
2021/01/28 13:20:20;;;;;;;1.65;0.60;;;14.00;75.90;;;;;;2560678;52;21058;-74
2021/01/28 13:22:47;;;;;;;1.70;0.77;;;14.00;75.90;;;;;;2586365;52;20947;-73
2021/01/28 13:25:16;;;;;;;1.48;0.55;;;14.00;75.80;;;;;;2583290;53;21004;-74
2021/01/28 13:27:43;;;;;;;1.85;0.85;;;14.10;75.20;;;;;;2556660;53;21529;-74
2021/01/28 13:30:12;;;;;;;1.73;0.70;;;14.10;75.60;;;;;;2585290;52;21044;-73
2021/01/28 13:32:38;;;;;;;1.42;0.60;;;14.10;76.30;;;;;;2341238;53;21580;-74
2021/01/28 13:35:07;;;;;;;1.98;0.70;;;14.10;75.40;;;;;;2342006;53;21456;-73
2021/01/28 13:37:33;;;;;;;1.15;0.40;;;14.20;75.30;;;;;;2580896;52;20938;-74
2021/01/28 13:40:01;;;;;;;1.67;0.50;;;14.20;75.50;;;;;;2596943;52;21051;-74
2021/01/28 13:42:27;;;;;;;1.37;0.50;;;14.20;75.60;;;;;;2347032;54;20994;-73
2021/01/28 13:44:54;;;;;;;1.52;0.70;;;14.20;75.50;;;;;;2552461;53;21006;-73
2021/01/28 13:47:23;;;;;;;1.25;0.50;;;14.30;75.60;;;;;;2570349;52;22115;-73
2021/01/28 13:49:50;;;;;;;2.00;0.60;;;14.20;75.50;;;;;;2609610;52;21548;-73